createdAt,value
2022-12-29T00:01:33.449Z,99853.53
2022-12-29T00:04:35.758Z,99855.94
2022-12-29T00:07:37.983Z,99848.87
2022-12-29T00:10:40.152Z,99852.50
2022-12-29T00:14:01.055Z,99851.63
2022-12-29T00:17:03.919Z,99852.75
2022-12-29T00:20:24.835Z,99871.56
2022-12-29T00:23:45.616Z,99864.19
2022-12-29T00:27:30.145Z,99859.66
2022-12-29T00:30:51.063Z,99857.69
2022-12-29T00:34:11.980Z,99857.31
2022-12-29T00:37:14.311Z,99851.03
2022-12-29T00:40:35.203Z,99845.00
2022-12-29T00:44:06.566Z,99853.22
2022-12-29T00:47:09.484Z,99859.16
2022-12-29T00:50:11.720Z,99843.28
2022-12-29T00:53:13.987Z,99838.94
2022-12-29T00:56:16.206Z,99841.44
2022-12-29T00:59:20.861Z,99845.78
2022-12-29T01:02:23.200Z,99853.81
2022-12-29T01:05:25.548Z,99846.41
2022-12-29T01:08:29.448Z,99856.47
2022-12-29T01:11:31.610Z,99859.94
2022-12-29T01:14:33.964Z,99868.72
2022-12-29T01:17:36.329Z,99867.69
2022-12-29T01:20:38.507Z,99857.19
2022-12-29T01:23:40.711Z,99861.59
2022-12-29T01:26:42.947Z,99851.72
2022-12-29T01:29:45.148Z,99853.72
2022-12-29T01:32:47.337Z,99854.31
2022-12-29T01:35:49.584Z,99847.94
2022-12-29T01:38:51.904Z,99848.87
2022-12-29T01:41:54.082Z,99847.13
2022-12-29T01:45:02.720Z,99846.81
2022-12-29T01:48:06.874Z,99847.16
2022-12-29T01:51:09.206Z,99843.03
2022-12-29T01:54:15.959Z,99839.38
2022-12-29T01:57:23.657Z,99832.69
2022-12-29T02:00:25.883Z,99829.25
2022-12-29T02:03:29.644Z,99831.66
2022-12-29T02:06:41.026Z,99836.41
2022-12-29T02:09:43.844Z,99835.84
2022-12-29T02:12:46.588Z,99842.34
2022-12-29T02:16:15.111Z,99828.09
2022-12-29T02:19:48.112Z,99830.94
2022-12-29T02:23:12.297Z,99821.41
2022-12-29T02:26:29.252Z,99827.88
2022-12-29T02:29:53.266Z,99828.69
2022-12-29T02:32:58.229Z,99818.59
2022-12-29T02:36:13.902Z,99818.13
2022-12-29T02:39:24.339Z,99821.00
2022-12-29T02:42:35.759Z,99807.47
2022-12-29T02:45:39.729Z,99803.34
2022-12-29T02:49:12.333Z,99802.97
2022-12-29T02:52:19.638Z,99810.34
2022-12-29T02:55:21.814Z,99802.16
2022-12-29T02:58:24.331Z,99794.31
2022-12-29T03:01:38.714Z,99787.81
2022-12-29T03:04:52.321Z,99787.44
2022-12-29T03:08:32.917Z,99782.81
2022-12-29T03:12:05.567Z,99789.31
2022-12-29T03:15:31.459Z,99781.50
2022-12-29T03:19:09.345Z,99787.28
2022-12-29T03:22:28.340Z,99787.22
2022-12-29T03:25:42.737Z,99784.38
2022-12-29T03:28:54.683Z,99790.38
2022-12-29T03:31:57.479Z,99788.72
2022-12-29T03:35:00.182Z,99790.00
2022-12-29T03:38:26.037Z,99793.94
2022-12-29T03:41:31.543Z,99779.31
2022-12-29T03:44:38.893Z,99775.56
2022-12-29T03:47:41.084Z,99769.25
2022-12-29T03:50:43.383Z,99767.72
2022-12-29T03:53:45.671Z,99773.50
2022-12-29T03:56:48.043Z,99772.13
2022-12-29T03:59:50.271Z,99766.78
2022-12-29T04:02:52.665Z,99768.06
2022-12-29T04:05:54.866Z,99770.69
2022-12-29T04:08:57.059Z,99768.75
2022-12-29T04:11:59.317Z,99771.34
2022-12-29T04:15:01.574Z,99767.25
2022-12-29T04:18:03.876Z,99756.81
2022-12-29T04:21:06.571Z,99759.53
2022-12-29T04:24:09.902Z,99774.09
2022-12-29T04:27:12.181Z,99772.19
2022-12-29T04:30:14.410Z,99777.41
2022-12-29T04:33:16.745Z,99778.44
2022-12-29T04:36:25.351Z,99775.06
2022-12-29T04:39:31.857Z,99762.78
2022-12-29T04:42:34.130Z,99763.25
2022-12-29T04:45:36.573Z,99756.56
2022-12-29T04:48:38.773Z,99773.16
2022-12-29T04:51:41.016Z,99775.09
2022-12-29T04:54:43.202Z,99773.19
2022-12-29T04:57:45.450Z,99771.19
2022-12-29T05:00:47.747Z,99763.97
2022-12-29T05:03:52.386Z,99751.53
2022-12-29T05:06:54.621Z,99754.47
2022-12-29T05:09:57.010Z,99756.72
2022-12-29T05:12:59.593Z,99769.16
2022-12-29T05:16:01.845Z,99772.56
2022-12-29T05:19:04.061Z,99771.25
2022-12-29T05:22:06.231Z,99773.44
2022-12-29T05:25:09.589Z,99778.13
2022-12-29T05:28:11.835Z,99785.22
2022-12-29T05:31:14.201Z,99781.38
2022-12-29T05:34:16.496Z,99771.97
2022-12-29T05:37:18.737Z,99762.72
2022-12-29T05:40:22.093Z,99767.03
2022-12-29T05:43:24.294Z,99770.19
2022-12-29T05:46:26.497Z,99758.09
2022-12-29T05:49:28.745Z,99748.75
2022-12-29T05:52:30.931Z,99750.16
2022-12-29T05:55:33.277Z,99753.00
2022-12-29T05:58:35.514Z,99751.94
2022-12-29T06:01:37.936Z,99764.28
2022-12-29T06:04:40.182Z,99763.41
2022-12-29T06:07:42.472Z,99762.38
2022-12-29T06:10:44.688Z,99762.56
2022-12-29T06:13:46.868Z,99755.94
2022-12-29T06:16:49.118Z,99754.19
2022-12-29T06:19:51.456Z,99748.50
2022-12-29T06:22:53.629Z,99735.59
2022-12-29T06:25:55.894Z,99734.81
2022-12-29T06:28:58.086Z,99740.84
2022-12-29T06:32:00.417Z,99751.47
2022-12-29T06:35:03.612Z,99758.88
2022-12-29T06:38:06.687Z,99751.28
2022-12-29T06:41:09.345Z,99762.53
2022-12-29T06:44:11.596Z,99751.28
2022-12-29T06:47:13.798Z,99751.88
2022-12-29T06:50:16.079Z,99757.03
2022-12-29T06:53:18.331Z,99760.06
2022-12-29T06:56:20.493Z,99751.53
2022-12-29T06:59:22.951Z,99755.09
2022-12-29T07:02:26.566Z,99754.03
2022-12-29T07:05:29.030Z,99754.50
2022-12-29T07:08:31.296Z,99754.41
2022-12-29T07:11:33.553Z,99766.59
2022-12-29T07:14:42.560Z,99764.34
2022-12-29T07:17:45.646Z,99762.31
2022-12-29T07:20:47.854Z,99772.75
2022-12-29T07:23:50.090Z,99772.75
2022-12-29T07:26:52.889Z,99770.28
2022-12-29T07:29:55.032Z,99779.50
2022-12-29T07:32:57.832Z,99782.94
2022-12-29T07:36:00.903Z,99780.84
2022-12-29T07:39:04.201Z,99777.47
2022-12-29T07:42:06.384Z,99766.47
2022-12-29T07:45:10.320Z,99779.34
2022-12-29T07:48:12.519Z,99774.22
2022-12-29T07:51:14.842Z,99781.56
2022-12-29T07:54:19.419Z,99777.91
2022-12-29T07:57:23.988Z,99776.19
2022-12-29T08:00:30.436Z,99783.06
2022-12-29T08:03:32.683Z,99780.47
2022-12-29T08:06:34.905Z,99786.44
2022-12-29T08:09:37.181Z,99788.75
2022-12-29T08:12:40.160Z,99793.63
2022-12-29T08:15:44.805Z,99791.88
2022-12-29T08:18:47.067Z,99791.03
2022-12-29T08:21:49.327Z,99774.91
2022-12-29T08:24:52.338Z,99767.53
2022-12-29T08:27:54.525Z,99767.53
2022-12-29T08:31:01.587Z,99775.38
2022-12-29T08:34:04.456Z,99771.69
2022-12-29T08:37:06.758Z,99764.22
2022-12-29T08:40:09.731Z,99759.75
2022-12-29T08:43:13.739Z,99760.00
2022-12-29T08:46:19.399Z,99764.22
2022-12-29T08:49:21.623Z,99758.19
2022-12-29T08:52:24.187Z,99751.19
2022-12-29T08:55:26.328Z,99746.22
2022-12-29T08:58:29.038Z,99746.09
2022-12-29T09:01:32.051Z,99756.72
2022-12-29T09:04:34.652Z,99751.38
2022-12-29T09:07:37.172Z,99756.66
2022-12-29T09:10:39.410Z,99756.31
2022-12-29T09:13:42.127Z,99753.53
2022-12-29T09:17:03.535Z,99748.47
2022-12-29T09:20:06.365Z,99745.56
2022-12-29T09:23:08.674Z,99752.06
2022-12-29T09:26:10.936Z,99744.06
2022-12-29T09:29:13.163Z,99734.56
2022-12-29T09:32:18.596Z,99734.03
2022-12-29T09:35:21.563Z,99727.28
2022-12-29T09:38:25.029Z,99723.28
2022-12-29T09:41:57.319Z,99711.69
2022-12-29T09:45:14.496Z,99703.72
2022-12-29T09:48:24.372Z,99695.47
2022-12-29T09:51:26.904Z,99712.25
2022-12-29T09:55:00.499Z,99706.81
2022-12-29T09:58:10.424Z,99700.56
2022-12-29T10:01:27.325Z,99709.09
2022-12-29T10:04:29.687Z,99706.81
2022-12-29T10:07:46.435Z,99703.41
2022-12-29T10:10:51.674Z,99697.41
2022-12-29T10:14:45.010Z,99693.56
2022-12-29T10:17:59.324Z,99688.31
2022-12-29T10:21:24.973Z,99692.06
2022-12-29T10:24:28.939Z,99685.41
2022-12-29T10:27:33.002Z,99686.28
2022-12-29T10:30:35.873Z,99689.84
2022-12-29T10:33:41.770Z,99682.56
2022-12-29T10:36:48.413Z,99680.16
2022-12-29T10:39:54.588Z,99674.78
2022-12-29T10:42:59.251Z,99674.09
2022-12-29T10:46:08.543Z,99668.44
2022-12-29T10:49:22.297Z,99665.16
2022-12-29T10:52:26.201Z,99665.69
2022-12-29T10:55:38.158Z,99669.69
2022-12-29T10:58:41.672Z,99674.50
2022-12-29T11:02:06.253Z,99658.72
2022-12-29T11:05:20.635Z,99661.88
2022-12-29T11:08:27.733Z,99656.81
2022-12-29T11:11:38.027Z,99660.09
2022-12-29T11:14:41.748Z,99666.88
2022-12-29T11:17:50.284Z,99667.66
2022-12-29T11:21:00.202Z,99666.00
2022-12-29T11:24:06.761Z,99670.84
2022-12-29T11:27:23.714Z,99664.09
2022-12-29T11:30:32.021Z,99655.00
2022-12-29T11:33:36.233Z,99641.22
2022-12-29T11:36:39.610Z,99652.53
2022-12-29T11:39:44.634Z,99644.66
2022-12-29T11:42:53.935Z,99643.56
2022-12-29T11:45:57.614Z,99629.53
2022-12-29T11:49:01.621Z,99625.50
2022-12-29T11:52:04.166Z,99607.81
2022-12-29T11:55:16.982Z,99614.28
2022-12-29T11:58:19.208Z,99629.03
2022-12-29T12:01:32.227Z,99644.34
2022-12-29T12:04:36.818Z,99632.44
2022-12-29T12:07:46.371Z,99638.50
2022-12-29T12:11:00.326Z,99631.22
2022-12-29T12:14:16.833Z,99629.59
2022-12-29T12:17:24.680Z,99625.41
2022-12-29T12:20:53.763Z,99620.41
2022-12-29T12:24:30.151Z,99623.97
2022-12-29T12:27:43.467Z,99616.94
2022-12-29T12:30:51.116Z,99601.59
2022-12-29T12:34:02.341Z,99602.50
2022-12-29T12:37:27.388Z,99590.03
2022-12-29T12:40:32.471Z,99575.56
2022-12-29T12:43:42.003Z,99559.50
2022-12-29T12:47:29.017Z,99550.72
2022-12-29T12:51:03.030Z,99551.25
2022-12-29T12:54:11.183Z,99551.00
2022-12-29T12:57:22.536Z,99557.09
2022-12-29T13:00:25.335Z,99570.59
2022-12-29T13:03:43.206Z,99575.53
2022-12-29T13:06:57.169Z,99577.56
2022-12-29T13:10:20.462Z,99563.31
2022-12-29T13:13:54.834Z,99571.69
2022-12-29T13:17:23.050Z,99576.28
2022-12-29T13:20:47.087Z,99576.16
2022-12-29T13:23:57.127Z,99577.97
2022-12-29T13:27:06.131Z,99583.97
2022-12-29T13:30:17.064Z,99594.69
2022-12-29T13:33:49.468Z,99586.06
2022-12-29T13:37:18.354Z,99591.22
2022-12-29T13:40:25.226Z,99600.78
2022-12-29T13:43:28.507Z,99601.75
2022-12-29T13:46:42.102Z,99595.19
2022-12-29T13:49:45.240Z,99597.31
2022-12-29T13:53:14.896Z,99604.53
2022-12-29T13:56:25.846Z,99595.72
2022-12-29T13:59:41.898Z,99599.03
2022-12-29T14:02:47.394Z,99602.03
2022-12-29T14:06:19.538Z,99610.19
2022-12-29T14:09:35.604Z,99608.12
2022-12-29T14:12:41.332Z,99620.00
2022-12-29T14:15:46.180Z,99623.72
2022-12-29T14:18:48.418Z,99615.97
2022-12-29T14:21:55.812Z,99613.22
2022-12-29T14:24:58.062Z,99617.56
2022-12-29T14:28:00.346Z,99608.94
2022-12-29T14:31:15.804Z,99608.34
2022-12-29T14:34:20.778Z,99595.81
2022-12-29T14:37:29.785Z,99587.16
2022-12-29T14:40:31.962Z,99605.88
2022-12-29T14:43:34.188Z,99602.78
2022-12-29T14:47:07.812Z,99601.44
2022-12-29T14:50:16.611Z,99611.19
2022-12-29T14:53:43.722Z,99620.94
2022-12-29T14:56:45.963Z,99616.53
2022-12-29T14:59:48.873Z,99620.66
2022-12-29T15:03:01.280Z,99621.19
2022-12-29T15:06:09.768Z,99625.44
2022-12-29T15:09:50.250Z,99625.53
2022-12-29T15:12:56.192Z,99621.16
2022-12-29T15:15:58.483Z,99622.72
2022-12-29T15:19:00.799Z,99636.94
2022-12-29T15:22:03.090Z,99644.69
2022-12-29T15:25:05.760Z,99642.28
2022-12-29T15:28:08.153Z,99651.72
2022-12-29T15:31:30.662Z,99659.59
2022-12-29T15:34:33.336Z,99660.00
2022-12-29T15:37:38.887Z,99659.38
2022-12-29T15:40:41.127Z,99653.62
2022-12-29T15:44:07.885Z,99637.78
2022-12-29T15:47:19.410Z,99639.91
2022-12-29T15:50:24.935Z,99633.91
2022-12-29T15:53:36.161Z,99634.47
2022-12-29T15:56:38.476Z,99633.78
2022-12-29T15:59:47.917Z,99624.47
2022-12-29T16:02:50.430Z,99625.91
2022-12-29T16:05:58.335Z,99631.38
2022-12-29T16:09:05.415Z,99622.41
2022-12-29T16:12:16.474Z,99631.28
2022-12-29T16:15:19.081Z,99628.34
2022-12-29T16:18:25.697Z,99619.25
2022-12-29T16:21:33.854Z,99626.28
2022-12-29T16:24:38.369Z,99624.41
2022-12-29T16:27:42.473Z,99617.63
2022-12-29T16:30:44.707Z,99617.06
2022-12-29T16:33:49.893Z,99628.94
2022-12-29T16:37:03.681Z,99641.09
2022-12-29T16:40:27.114Z,99644.44
2022-12-29T16:43:35.708Z,99635.97
2022-12-29T16:46:39.100Z,99643.06
2022-12-29T16:49:44.113Z,99632.19
2022-12-29T16:52:50.063Z,99641.69
2022-12-29T16:55:56.401Z,99652.34
2022-12-29T16:59:22.779Z,99642.78
2022-12-29T17:02:28.389Z,99637.88
2022-12-29T17:05:30.756Z,99650.69
2022-12-29T17:08:41.474Z,99649.75
2022-12-29T17:12:01.528Z,99651.41
2022-12-29T17:15:27.985Z,99656.63
2022-12-29T17:18:30.780Z,99653.62
2022-12-29T17:21:32.958Z,99653.75
2022-12-29T17:24:36.579Z,99658.94
2022-12-29T17:27:51.575Z,99660.31
2022-12-29T17:30:56.988Z,99652.09
2022-12-29T17:34:00.323Z,99656.09
2022-12-29T17:37:02.586Z,99649.38
2022-12-29T17:40:11.177Z,99644.16
2022-12-29T17:43:14.984Z,99649.00
2022-12-29T17:46:17.238Z,99625.41
2022-12-29T17:49:19.452Z,99622.31
2022-12-29T17:52:21.887Z,99617.22
2022-12-29T17:55:29.944Z,99624.22
2022-12-29T17:58:35.230Z,99626.97
2022-12-29T18:01:40.984Z,99630.53
2022-12-29T18:04:45.869Z,99633.47
2022-12-29T18:07:49.237Z,99624.75
2022-12-29T18:10:52.053Z,99625.97
2022-12-29T18:13:54.681Z,99621.28
2022-12-29T18:16:56.875Z,99622.97
2022-12-29T18:19:59.305Z,99619.75
2022-12-29T18:23:01.516Z,99619.87
2022-12-29T18:26:06.158Z,99620.81
2022-12-29T18:29:08.358Z,99617.47
2022-12-29T18:32:14.427Z,99610.88
2022-12-29T18:35:25.553Z,99601.56
2022-12-29T18:38:28.700Z,99610.75
2022-12-29T18:41:30.984Z,99605.28
2022-12-29T18:44:33.920Z,99608.41
2022-12-29T18:47:36.110Z,99606.22
2022-12-29T18:50:38.323Z,99599.81
2022-12-29T18:53:40.537Z,99594.25
2022-12-29T18:56:43.112Z,99593.56
2022-12-29T18:59:45.358Z,99592.94
2022-12-29T19:02:49.632Z,99596.75
2022-12-29T19:05:51.936Z,99594.97
2022-12-29T19:08:54.142Z,99598.25
2022-12-29T19:11:56.354Z,99609.16
2022-12-29T19:14:58.795Z,99590.88
2022-12-29T19:18:41.747Z,99599.28
2022-12-29T19:21:24.956Z,99588.25
2022-12-29T19:24:27.297Z,99579.16
2022-12-29T19:27:31.751Z,99579.75
2022-12-29T19:30:35.062Z,99579.75
2022-12-29T19:33:37.873Z,99586.06
2022-12-29T19:36:40.077Z,99599.13
2022-12-29T19:39:42.342Z,99591.97
2022-12-29T19:42:44.803Z,99603.47
2022-12-29T19:45:47.331Z,99595.53
2022-12-29T19:48:50.468Z,99595.28
2022-12-29T19:51:52.903Z,99592.22
2022-12-29T19:54:55.491Z,99593.62
2022-12-29T19:57:58.010Z,99588.56
2022-12-29T20:01:12.552Z,99584.19
2022-12-29T20:04:14.819Z,99577.13
2022-12-29T20:07:18.004Z,99575.72
2022-12-29T20:10:20.176Z,99577.22
2022-12-29T20:13:22.467Z,99569.91
2022-12-29T20:16:25.112Z,99569.19
2022-12-29T20:19:27.475Z,99571.94
2022-12-29T20:22:30.884Z,99562.12
2022-12-29T20:25:48.680Z,99566.19
2022-12-29T20:28:51.192Z,99560.56
2022-12-29T20:31:54.209Z,99565.44
2022-12-29T20:34:56.429Z,99570.91
2022-12-29T20:37:58.618Z,99569.81
2022-12-29T20:41:00.930Z,99577.31
2022-12-29T20:44:05.268Z,99587.53
2022-12-29T20:47:08.328Z,99577.88
2022-12-29T20:50:10.568Z,99561.94
2022-12-29T20:53:12.907Z,99568.09
2022-12-29T20:56:17.325Z,99573.16
2022-12-29T20:59:28.366Z,99573.19
2022-12-29T21:02:31.313Z,99571.50
2022-12-29T21:05:36.571Z,99574.41
2022-12-29T21:08:39.740Z,99570.28
2022-12-29T21:11:41.946Z,99579.31
2022-12-29T21:14:45.910Z,99573.34
2022-12-29T21:17:48.610Z,99567.31
2022-12-29T21:21:06.151Z,99571.41
2022-12-29T21:24:08.437Z,99585.56
2022-12-29T21:27:10.660Z,99591.72
2022-12-29T21:30:13.484Z,99598.00
2022-12-29T21:33:19.836Z,99591.00
2022-12-29T21:36:22.556Z,99582.84
2022-12-29T21:39:24.928Z,99576.56
2022-12-29T21:42:30.126Z,99575.13
2022-12-29T21:45:32.659Z,99565.78
2022-12-29T21:48:35.103Z,99554.69
2022-12-29T21:51:53.893Z,99561.91
2022-12-29T21:55:02.330Z,99559.09
2022-12-29T21:58:23.064Z,99564.66
2022-12-29T22:01:45.221Z,99558.37
2022-12-29T22:05:06.021Z,99558.75
2022-12-29T22:08:26.767Z,99562.06
2022-12-29T22:11:47.669Z,99563.59
2022-12-29T22:14:49.924Z,99580.75
2022-12-29T22:17:53.584Z,99583.75
2022-12-29T22:20:55.771Z,99585.00
2022-12-29T22:23:57.940Z,99572.63
2022-12-29T22:27:00.915Z,99569.09
2022-12-29T22:30:03.562Z,99561.97
2022-12-29T22:33:05.772Z,99545.16
2022-12-29T22:36:08.141Z,99546.78
2022-12-29T22:39:10.596Z,99545.69
2022-12-29T22:42:12.977Z,99549.41
2022-12-29T22:45:15.262Z,99544.41
2022-12-29T22:48:17.457Z,99544.16
2022-12-29T22:51:19.581Z,99554.53
2022-12-29T22:54:22.055Z,99554.78
2022-12-29T22:57:24.293Z,99545.00
2022-12-29T23:00:26.500Z,99541.03
2022-12-29T23:03:28.975Z,99541.72
2022-12-29T23:06:32.001Z,99542.81
2022-12-29T23:09:34.224Z,99556.59
2022-12-29T23:12:36.489Z,99561.28
2022-12-29T23:15:38.772Z,99562.16
2022-12-29T23:18:41.295Z,99552.16
2022-12-29T23:21:43.494Z,99546.38
2022-12-29T23:24:45.681Z,99533.47
2022-12-29T23:27:47.850Z,99521.78
2022-12-29T23:30:50.083Z,99517.12
2022-12-29T23:33:52.562Z,99517.59
2022-12-29T23:36:54.813Z,99515.25
2022-12-29T23:39:56.983Z,99505.87
2022-12-29T23:42:59.244Z,99499.72
2022-12-29T23:46:09.255Z,99500.69
2022-12-29T23:49:11.481Z,99497.81
2022-12-29T23:52:13.693Z,99510.47
2022-12-29T23:55:15.968Z,99508.41
2022-12-29T23:58:18.136Z,99502.22
